createdAt,value
2022-09-01T00:00:02.480Z,49.20
2022-09-01T00:02:34.164Z,49.14
2022-09-01T00:05:05.227Z,48.53
2022-09-01T00:07:37.579Z,48.51
2022-09-01T00:10:11.612Z,48.52
2022-09-01T00:12:44.036Z,48.46
2022-09-01T00:15:18.005Z,48.28
2022-09-01T00:17:48.627Z,48.79
2022-09-01T00:20:22.467Z,48.97
2022-09-01T00:22:56.036Z,48.86
2022-09-01T00:25:28.952Z,48.88
2022-09-01T00:28:08.294Z,48.46
2022-09-01T00:30:38.577Z,49.09
2022-09-01T00:33:09.501Z,48.63
2022-09-01T00:38:26.205Z,48.25
2022-09-01T00:40:57.292Z,48.84
2022-09-01T00:43:42.744Z,48.41
2022-09-01T00:46:21.046Z,48.83
2022-09-01T00:49:00.412Z,48.87
2022-09-01T00:51:42.333Z,49.14
2022-09-01T00:54:24.332Z,49.06
2022-09-01T00:56:57.759Z,48.65
2022-09-01T00:59:32.426Z,49.07
2022-09-01T01:02:03.553Z,48.85
2022-09-01T01:04:34.245Z,48.58
2022-09-01T01:07:07.085Z,49.21
2022-09-01T01:09:47.273Z,48.80
2022-09-01T01:12:18.934Z,49.24
2022-09-01T01:14:51.625Z,48.63
2022-09-01T01:17:33.566Z,49.30
2022-09-01T01:20:22.729Z,48.64
2022-09-01T01:23:08.344Z,48.63
2022-09-01T01:25:53.831Z,48.98
2022-09-01T01:28:32.453Z,48.59
2022-09-01T01:31:06.648Z,49.39
2022-09-01T01:33:46.096Z,49.29
2022-09-01T01:36:34.279Z,48.49
2022-09-01T01:42:01.551Z,48.64
2022-09-01T01:44:34.388Z,49.11
2022-09-01T01:47:06.145Z,48.70
2022-09-01T01:49:37.971Z,49.06
2022-09-01T01:52:08.376Z,49.14
2022-09-01T01:54:39.115Z,49.21
2022-09-01T01:57:12.240Z,48.98
2022-09-01T01:59:42.990Z,49.23
2022-09-01T02:02:13.433Z,48.65
2022-09-01T02:04:56.194Z,48.74
2022-09-01T02:07:28.190Z,48.69
2022-09-01T02:10:03.159Z,48.55
2022-09-01T02:12:38.363Z,49.25
2022-09-01T02:15:12.992Z,48.73
2022-09-01T02:17:46.385Z,49.28
2022-09-01T02:20:20.658Z,48.66
2022-09-01T02:22:52.655Z,49.14
2022-09-01T02:25:23.963Z,49.17
2022-09-01T02:28:00.704Z,48.76
2022-09-01T02:30:33.437Z,49.15
2022-09-01T02:33:07.373Z,48.44
2022-09-01T02:35:38.825Z,48.57
2022-09-01T02:38:26.861Z,49.12
2022-09-01T02:40:58.846Z,49.16
2022-09-01T02:43:34.397Z,48.66
2022-09-01T02:46:06.883Z,49.04
2022-09-01T02:48:42.288Z,48.98
2022-09-01T02:51:22.976Z,49.07
2022-09-01T02:53:53.341Z,48.94
2022-09-01T02:56:28.469Z,48.75
2022-09-01T02:59:02.765Z,48.96
2022-09-01T03:01:36.501Z,48.56
2022-09-01T03:04:15.764Z,48.58
2022-09-01T03:06:55.332Z,49.00
2022-09-01T03:09:25.785Z,49.16
2022-09-01T03:11:57.631Z,48.62
2022-09-01T03:14:46.603Z,49.16
2022-09-01T03:17:17.295Z,48.63
2022-09-01T03:19:47.689Z,48.51
2022-09-01T03:22:31.708Z,49.09
2022-09-01T03:25:02.999Z,49.32
2022-09-01T03:27:34.145Z,49.44
2022-09-01T03:30:08.071Z,49.09
2022-09-01T03:32:39.344Z,49.21
2022-09-01T03:35:11.420Z,48.44
2022-09-01T03:37:44.866Z,48.58
2022-09-01T03:40:19.011Z,49.16
2022-09-01T03:42:49.915Z,48.81
2022-09-01T03:45:22.665Z,48.37
2022-09-01T03:47:54.965Z,48.42
2022-09-01T03:50:29.650Z,48.99
2022-09-01T03:53:03.298Z,48.67
2022-09-01T03:55:48.000Z,48.28
2022-09-01T03:58:21.530Z,48.64
2022-09-01T04:01:03.477Z,48.47
2022-09-01T04:03:36.766Z,48.65
2022-09-01T04:06:13.203Z,48.38
2022-09-01T04:08:43.851Z,49.08
2022-09-01T04:11:19.208Z,48.49
2022-09-01T04:13:49.401Z,48.60
2022-09-01T04:16:45.047Z,48.87
2022-09-01T04:19:26.977Z,49.08
2022-09-01T04:22:00.448Z,49.04
2022-09-01T04:24:35.293Z,49.14
2022-09-01T04:27:08.278Z,48.90
2022-09-01T04:29:41.460Z,48.79
2022-09-01T04:32:13.871Z,48.53
2022-09-01T04:34:44.333Z,48.47
2022-09-01T04:37:29.102Z,49.06
2022-09-01T04:40:03.451Z,48.56
2022-09-01T04:42:35.469Z,48.93
2022-09-01T04:45:11.621Z,48.45
2022-09-01T04:47:43.771Z,48.96
2022-09-01T04:50:18.130Z,48.63
2022-09-01T04:52:49.144Z,49.09
2022-09-01T04:55:21.096Z,49.14
2022-09-01T04:57:53.779Z,48.56
2022-09-01T05:00:32.906Z,48.94
2022-09-01T05:03:07.400Z,49.24
2022-09-01T05:05:47.558Z,48.79
2022-09-01T05:08:24.727Z,48.62
2022-09-01T05:10:57.244Z,49.04
2022-09-01T05:13:30.137Z,49.00
2022-09-01T05:16:13.566Z,48.69
2022-09-01T05:18:49.368Z,48.38
2022-09-01T05:21:26.941Z,48.31
2022-09-01T05:24:06.312Z,49.00
2022-09-01T05:26:41.558Z,49.07
2022-09-01T05:29:18.188Z,48.98
2022-09-01T05:31:50.795Z,48.56
2022-09-01T05:34:32.939Z,49.11
2022-09-01T05:37:04.165Z,49.21
2022-09-01T05:39:36.550Z,48.60
2022-09-01T05:42:09.596Z,49.08
2022-09-01T05:44:45.405Z,48.76
2022-09-01T05:47:20.743Z,48.84
2022-09-01T05:49:54.200Z,48.35
2022-09-01T05:52:27.646Z,48.48
2022-09-01T05:55:00.907Z,48.53
2022-09-01T05:57:40.371Z,48.95
2022-09-01T06:00:13.878Z,48.86
2022-09-01T06:02:45.797Z,48.28
2022-09-01T06:05:27.544Z,48.52
2022-09-01T06:07:57.907Z,48.30
2022-09-01T06:10:29.092Z,48.29
2022-09-01T06:13:02.959Z,48.51
2022-09-01T06:15:34.438Z,48.14
2022-09-01T06:18:07.957Z,48.06
2022-09-01T06:20:52.544Z,48.50
2022-09-01T06:23:24.237Z,48.39
2022-09-01T06:25:54.410Z,48.48
2022-09-01T06:28:25.319Z,48.22
2022-09-01T06:30:57.926Z,48.35
2022-09-01T06:33:28.541Z,48.22
2022-09-01T06:36:05.286Z,47.98
2022-09-01T06:38:35.688Z,47.88
2022-09-01T06:41:16.039Z,48.44
2022-09-01T06:43:50.791Z,48.04
2022-09-01T06:46:22.022Z,48.02
2022-09-01T06:48:57.992Z,48.33
2022-09-01T06:51:34.771Z,48.38
2022-09-01T06:54:11.316Z,47.98
2022-09-01T06:56:51.816Z,48.28
2022-09-01T06:59:34.839Z,47.78
2022-09-01T07:02:07.196Z,47.84
2022-09-01T07:04:45.535Z,47.75
2022-09-01T07:10:24.488Z,48.00
2022-09-01T07:13:12.172Z,47.70
2022-09-01T07:18:36.054Z,47.66
2022-09-01T07:21:38.698Z,47.81
2022-09-01T07:24:26.626Z,47.90
2022-09-01T07:27:09.242Z,47.38
2022-09-01T07:29:41.707Z,47.98
2022-09-01T07:35:05.854Z,47.64
2022-09-01T07:43:32.771Z,47.80
2022-09-01T07:49:28.505Z,47.19
2022-09-01T07:51:56.035Z,47.19
2022-09-01T07:54:30.871Z,47.50
2022-09-01T07:57:03.577Z,47.56
2022-09-01T07:59:33.989Z,47.04
2022-09-01T08:02:07.117Z,47.54
2022-09-01T08:04:40.764Z,47.50
2022-09-01T08:07:16.231Z,47.33
2022-09-01T08:09:46.624Z,47.03
2022-09-01T08:12:20.061Z,46.70
2022-09-01T08:17:53.189Z,47.27
2022-09-01T08:20:24.814Z,46.73
2022-09-01T08:22:55.318Z,47.08
2022-09-01T08:25:27.295Z,47.06
2022-09-01T08:28:00.301Z,47.09
2022-09-01T08:30:39.674Z,46.66
2022-09-01T08:33:12.619Z,46.79
2022-09-01T08:35:48.996Z,47.02
2022-09-01T08:38:19.696Z,46.58
2022-09-01T08:41:16.996Z,46.99
2022-09-01T08:44:05.070Z,46.66
2022-09-01T08:46:42.033Z,46.67
2022-09-01T08:49:26.784Z,46.86
2022-09-01T08:52:10.336Z,46.24
2022-09-01T08:54:50.169Z,46.37
2022-09-01T08:57:26.414Z,46.05
2022-09-01T09:00:02.647Z,46.44
2022-09-01T09:03:20.883Z,46.57
2022-09-01T09:06:23.465Z,45.91
2022-09-01T09:09:05.094Z,45.99
2022-09-01T09:12:05.302Z,46.08
2022-09-01T09:14:54.255Z,45.99
2022-09-01T09:17:38.068Z,46.26
2022-09-01T09:20:10.140Z,46.00
2022-09-01T09:22:41.939Z,45.81
2022-09-01T09:25:19.242Z,46.00
2022-09-01T09:28:02.534Z,46.29
2022-09-01T09:30:34.102Z,45.79
2022-09-01T09:33:46.678Z,45.78
2022-09-01T09:36:25.449Z,46.01
2022-09-01T09:39:17.054Z,45.60
2022-09-01T09:42:09.875Z,45.96
2022-09-01T09:44:51.108Z,45.26
2022-09-01T09:47:47.172Z,46.06
2022-09-01T09:50:27.839Z,45.80
2022-09-01T09:53:20.603Z,45.50
2022-09-01T09:56:04.652Z,45.30
2022-09-01T09:58:44.205Z,45.84
2022-09-01T10:01:38.430Z,45.51
2022-09-01T10:04:08.774Z,45.74
2022-09-01T10:06:47.523Z,45.34
2022-09-01T10:09:48.230Z,45.24
2022-09-01T10:12:19.277Z,45.26
2022-09-01T10:15:15.649Z,45.56
2022-09-01T10:18:21.754Z,45.01
2022-09-01T10:21:01.750Z,45.41
2022-09-01T10:23:37.597Z,44.88
2022-09-01T10:26:18.896Z,45.17
2022-09-01T10:29:08.410Z,45.11
2022-09-01T10:31:44.121Z,44.84
2022-09-01T10:34:32.561Z,44.92
2022-09-01T10:37:10.216Z,45.26
2022-09-01T10:40:43.251Z,44.81
2022-09-01T10:43:41.710Z,45.21
2022-09-01T10:46:50.928Z,44.79
2022-09-01T10:50:07.487Z,44.90
2022-09-01T10:53:06.914Z,45.19
2022-09-01T11:02:27.496Z,44.76
2022-09-01T11:05:21.457Z,45.23
2022-09-01T11:08:01.342Z,45.06
2022-09-01T11:10:59.007Z,45.27
2022-09-01T11:13:50.120Z,44.92
2022-09-01T11:16:52.776Z,45.18
2022-09-01T11:19:44.385Z,44.65
2022-09-01T11:22:34.666Z,45.31
2022-09-01T11:25:42.923Z,45.13
2022-09-01T11:28:53.683Z,45.06
2022-09-01T11:31:46.474Z,44.65
2022-09-01T11:34:23.913Z,45.08
2022-09-01T11:37:04.276Z,44.88
2022-09-01T11:39:43.957Z,44.93
2022-09-01T11:42:21.888Z,45.21
2022-09-01T11:45:02.697Z,45.27
2022-09-01T11:47:41.957Z,45.14
2022-09-01T11:50:25.181Z,44.60
2022-09-01T11:53:12.240Z,45.28
2022-09-01T11:55:46.496Z,45.11
2022-09-01T11:58:39.749Z,45.08
2022-09-01T12:01:22.833Z,45.24
2022-09-01T12:03:54.844Z,44.80
2022-09-01T12:06:32.019Z,44.80
2022-09-01T12:09:09.251Z,44.77
2022-09-01T12:12:26.604Z,44.85
2022-09-01T12:15:08.243Z,44.65
2022-09-01T12:17:41.903Z,44.72
2022-09-01T12:20:33.666Z,44.87
2022-09-01T12:23:04.235Z,45.00
2022-09-01T12:25:37.803Z,45.00
2022-09-01T12:28:10.966Z,45.29
2022-09-01T12:30:57.505Z,44.70
2022-09-01T12:33:31.739Z,44.51
2022-09-01T12:36:37.762Z,44.68
2022-09-01T12:39:27.238Z,44.59
2022-09-01T12:42:29.500Z,44.97
2022-09-01T12:45:16.719Z,44.99
2022-09-01T12:48:03.038Z,44.94
2022-09-01T12:50:52.469Z,45.02
2022-09-01T12:53:36.503Z,45.31
2022-09-01T12:56:31.862Z,44.71
2022-09-01T12:59:17.919Z,45.15
2022-09-01T13:01:53.627Z,44.75
2022-09-01T13:04:31.590Z,44.96
2022-09-01T13:07:09.570Z,45.11
2022-09-01T13:09:39.919Z,44.80
2022-09-01T13:12:24.922Z,45.15
2022-09-01T13:14:55.831Z,45.51
2022-09-01T13:17:26.914Z,44.93
2022-09-01T13:19:57.528Z,45.25
2022-09-01T13:22:29.727Z,45.26
2022-09-01T13:25:00.928Z,45.06
2022-09-01T13:27:32.538Z,45.79
2022-09-01T13:30:05.070Z,45.27
2022-09-01T13:32:35.826Z,45.43
2022-09-01T13:35:36.342Z,45.99
2022-09-01T13:38:10.012Z,45.87
2022-09-01T13:40:47.298Z,45.68
2022-09-01T13:43:22.282Z,45.31
2022-09-01T13:45:53.440Z,45.47
2022-09-01T13:49:02.348Z,45.39
2022-09-01T13:51:28.473Z,46.02
2022-09-01T13:54:03.511Z,45.77
2022-09-01T13:56:34.283Z,45.65
2022-09-01T13:59:05.526Z,45.29
2022-09-01T14:01:36.004Z,45.92
2022-09-01T14:04:06.853Z,45.41
2022-09-01T14:06:42.034Z,45.46
2022-09-01T14:09:17.757Z,46.18
2022-09-01T14:11:48.543Z,46.14
2022-09-01T14:14:19.034Z,46.06
2022-09-01T14:16:49.954Z,45.67
2022-09-01T14:19:21.496Z,46.28
2022-09-01T14:21:51.840Z,46.21
2022-09-01T14:24:24.352Z,45.83
2022-09-01T14:26:54.974Z,46.07
2022-09-01T14:29:25.600Z,46.18
2022-09-01T14:31:56.432Z,46.24
2022-09-01T14:34:27.226Z,46.40
2022-09-01T14:36:58.857Z,46.37
2022-09-01T14:39:35.954Z,46.28
2022-09-01T14:42:08.342Z,46.47
2022-09-01T14:44:53.580Z,46.39
2022-09-01T14:47:26.770Z,46.25
2022-09-01T14:49:58.604Z,46.36
2022-09-01T14:52:38.699Z,45.80
2022-09-01T14:55:14.399Z,46.54
2022-09-01T14:57:44.944Z,46.31
2022-09-01T15:00:19.329Z,45.88
2022-09-01T15:02:50.263Z,46.25
2022-09-01T15:05:21.560Z,46.57
2022-09-01T15:07:53.266Z,46.25
2022-09-01T15:10:33.808Z,46.33
2022-09-01T15:13:11.835Z,45.96
2022-09-01T15:15:47.899Z,45.96
2022-09-01T15:18:22.317Z,46.47
2022-09-01T15:20:58.261Z,46.23
2022-09-01T15:24:00.105Z,46.26
2022-09-01T15:26:43.041Z,46.26
2022-09-01T15:32:10.294Z,45.96
2022-09-01T15:34:53.873Z,46.36
2022-09-01T15:37:26.050Z,46.14
2022-09-01T15:39:59.473Z,46.64
2022-09-01T15:42:36.400Z,46.75
2022-09-01T15:45:12.063Z,46.56
2022-09-01T15:47:46.574Z,46.49
2022-09-01T15:50:22.231Z,46.87
2022-09-01T15:53:16.035Z,46.72
2022-09-01T15:55:48.840Z,46.25
2022-09-01T15:58:24.748Z,46.29
2022-09-01T16:01:02.255Z,46.24
2022-09-01T16:03:35.321Z,46.13
2022-09-01T16:06:07.404Z,46.69
2022-09-01T16:08:42.850Z,46.89
2022-09-01T16:11:16.553Z,46.81
2022-09-01T16:13:56.174Z,46.56
2022-09-01T16:16:53.158Z,46.57
2022-09-01T16:19:41.709Z,46.37
2022-09-01T16:22:24.994Z,46.69
2022-09-01T16:25:04.066Z,46.26
2022-09-01T16:27:45.211Z,46.24
2022-09-01T16:30:28.538Z,46.47
2022-09-01T16:33:20.934Z,46.90
2022-09-01T16:36:18.538Z,46.52
2022-09-01T16:38:58.191Z,46.87
2022-09-01T16:41:53.753Z,46.42
2022-09-01T16:44:46.583Z,46.98
2022-09-01T16:47:49.492Z,47.17
2022-09-01T16:50:51.605Z,46.54
2022-09-01T16:53:41.079Z,47.25
2022-09-01T16:56:18.441Z,47.18
2022-09-01T16:59:00.581Z,46.94
2022-09-01T17:01:46.601Z,46.63
2022-09-01T17:04:56.921Z,47.13
2022-09-01T17:07:52.425Z,47.33
2022-09-01T17:10:43.488Z,47.25
2022-09-01T17:13:23.099Z,46.70
2022-09-01T17:16:07.078Z,46.81
2022-09-01T17:18:51.073Z,46.91
2022-09-01T17:21:36.537Z,46.98
2022-09-01T17:24:35.129Z,47.06
2022-09-01T17:27:23.204Z,47.69
2022-09-01T17:30:01.734Z,47.58
2022-09-01T17:32:59.855Z,47.58
2022-09-01T17:35:42.494Z,47.02
2022-09-01T17:38:31.826Z,46.95
2022-09-01T17:41:35.189Z,47.45
2022-09-01T17:44:29.762Z,47.29
2022-09-01T17:47:13.262Z,47.60
2022-09-01T17:49:56.843Z,46.98
2022-09-01T17:52:52.594Z,47.36
2022-09-01T17:55:52.156Z,47.63
2022-09-01T17:58:55.998Z,47.65
2022-09-01T18:01:44.254Z,47.13
2022-09-01T18:04:59.977Z,47.36
2022-09-01T18:07:51.237Z,47.24
2022-09-01T18:10:32.438Z,47.55
2022-09-01T18:13:08.874Z,47.92
2022-09-01T18:15:53.670Z,47.22
2022-09-01T18:18:42.227Z,47.27
2022-09-01T18:21:20.896Z,47.68
2022-09-01T18:24:02.981Z,47.65
2022-09-01T18:26:46.907Z,47.52
2022-09-01T18:29:32.197Z,47.72
2022-09-01T18:32:34.198Z,47.49
2022-09-01T18:35:18.849Z,46.92
2022-09-01T18:41:32.453Z,47.27
2022-09-01T18:44:22.506Z,47.35
2022-09-01T18:47:03.598Z,47.01
2022-09-01T18:49:45.131Z,47.49
2022-09-01T18:52:38.612Z,47.13
2022-09-01T18:55:22.277Z,47.28
2022-09-01T18:58:00.269Z,46.86
2022-09-01T19:00:41.939Z,47.45
2022-09-01T19:03:28.572Z,47.10
2022-09-01T19:06:32.163Z,47.53
2022-09-01T19:09:16.983Z,47.71
2022-09-01T19:12:10.885Z,47.41
2022-09-01T19:14:55.441Z,47.04
2022-09-01T19:18:09.908Z,47.17
2022-09-01T19:20:52.417Z,47.41
2022-09-01T19:23:36.323Z,47.59
2022-09-01T19:26:17.142Z,47.42
2022-09-01T19:28:53.382Z,47.71
2022-09-01T19:31:28.626Z,47.78
2022-09-01T19:34:05.764Z,47.50
2022-09-01T19:36:43.067Z,47.82
2022-09-01T19:39:18.534Z,47.62
2022-09-01T19:41:57.293Z,47.78
2022-09-01T19:44:37.846Z,47.79
2022-09-01T19:47:17.938Z,47.69
2022-09-01T19:50:02.045Z,47.19
2022-09-01T19:52:41.037Z,47.94
2022-09-01T19:55:19.468Z,47.73
2022-09-01T19:57:58.806Z,47.52
2022-09-01T20:00:45.697Z,47.98
2022-09-01T20:03:28.653Z,47.75
2022-09-01T20:06:06.360Z,47.12
2022-09-01T20:08:44.651Z,47.32
2022-09-01T20:11:23.060Z,47.82
2022-09-01T20:14:18.920Z,47.94
2022-09-01T20:16:53.435Z,48.01
2022-09-01T20:19:32.178Z,47.48
2022-09-01T20:22:23.903Z,48.03
2022-09-01T20:25:11.102Z,47.60
2022-09-01T20:27:54.638Z,47.82
2022-09-01T20:30:28.093Z,47.59
2022-09-01T20:33:07.715Z,47.92
2022-09-01T20:35:48.310Z,47.49
2022-09-01T20:38:44.683Z,47.91
2022-09-01T20:41:25.390Z,47.83
2022-09-01T20:43:58.593Z,47.44
2022-09-01T20:46:30.223Z,47.92
2022-09-01T20:49:03.032Z,47.51
2022-09-01T20:51:47.370Z,47.26
2022-09-01T20:54:38.958Z,47.71
2022-09-01T20:57:28.578Z,47.97
2022-09-01T21:00:11.814Z,47.41
2022-09-01T21:02:57.237Z,47.87
2022-09-01T21:05:44.136Z,47.49
2022-09-01T21:08:40.459Z,47.60
2022-09-01T21:11:28.739Z,48.00
2022-09-01T21:14:22.861Z,47.90
2022-09-01T21:17:17.180Z,48.17
2022-09-01T21:20:02.595Z,47.93
2022-09-01T21:22:33.332Z,47.69
2022-09-01T21:25:05.007Z,47.62
2022-09-01T21:27:45.462Z,48.01
2022-09-01T21:30:19.025Z,47.35
2022-09-01T21:32:50.187Z,47.51
2022-09-01T21:35:23.237Z,47.74
2022-09-01T21:37:55.017Z,48.14
2022-09-01T21:40:28.826Z,47.50
2022-09-01T21:43:11.694Z,47.91
2022-09-01T21:45:42.312Z,48.11
2022-09-01T21:48:12.969Z,48.09
2022-09-01T21:50:45.204Z,47.58
2022-09-01T21:53:16.486Z,47.50
2022-09-01T21:55:47.572Z,47.69
2022-09-01T21:58:20.476Z,47.46
2022-09-01T22:00:51.689Z,47.42
2022-09-01T22:03:22.689Z,47.58
2022-09-01T22:05:53.453Z,47.83
2022-09-01T22:08:24.654Z,47.83
2022-09-01T22:10:57.259Z,47.68
2022-09-01T22:13:30.662Z,47.54
2022-09-01T22:16:01.518Z,47.89
2022-09-01T22:18:32.318Z,47.33
2022-09-01T22:21:08.262Z,47.89
2022-09-01T22:23:39.756Z,48.06
2022-09-01T22:26:15.464Z,47.94
2022-09-01T22:28:48.906Z,48.01
2022-09-01T22:31:22.746Z,48.09
2022-09-01T22:33:53.895Z,47.86
2022-09-01T22:36:27.682Z,48.01
2022-09-01T22:39:00.147Z,47.84
2022-09-01T22:41:34.363Z,47.56
2022-09-01T22:44:08.285Z,47.53
2022-09-01T22:46:40.831Z,47.92
2022-09-01T22:49:12.990Z,47.52
2022-09-01T22:51:44.987Z,48.05
2022-09-01T22:54:16.462Z,47.43
2022-09-01T22:56:50.187Z,47.83
2022-09-01T22:59:23.601Z,48.13
2022-09-01T23:01:55.450Z,47.83
2022-09-01T23:04:27.207Z,47.46
2022-09-01T23:06:58.619Z,47.85
2022-09-01T23:09:29.228Z,47.43
2022-09-01T23:11:59.669Z,47.42
2022-09-01T23:14:31.960Z,47.58
2022-09-01T23:17:02.460Z,47.90
2022-09-01T23:19:32.631Z,47.33
2022-09-01T23:22:03.675Z,47.83
2022-09-01T23:24:34.113Z,47.29
2022-09-01T23:27:04.665Z,47.39
2022-09-01T23:29:37.438Z,47.87
2022-09-01T23:32:09.033Z,47.74
2022-09-01T23:34:40.776Z,47.89
2022-09-01T23:37:12.021Z,47.83
2022-09-01T23:39:43.199Z,47.19
2022-09-01T23:42:13.927Z,47.22
2022-09-01T23:44:46.367Z,47.24
2022-09-01T23:47:16.847Z,47.35
2022-09-01T23:49:47.248Z,47.23
2022-09-01T23:52:18.638Z,47.76
2022-09-01T23:54:49.818Z,47.28
2022-09-01T23:57:19.934Z,47.49
2022-09-01T23:59:52.621Z,47.08
